createdAt,value
2023-08-17T00:00:11.230Z,54.35
2023-08-17T00:02:39.895Z,53.84
2023-08-17T00:05:09.984Z,53.18
2023-08-17T00:07:38.218Z,53.32
2023-08-17T00:10:06.407Z,53.38
2023-08-17T00:12:34.235Z,53.59
2023-08-17T00:15:01.848Z,53.47
2023-08-17T00:17:29.463Z,53.53
2023-08-17T00:19:57.103Z,53.43
2023-08-17T00:22:26.251Z,53.15
2023-08-17T00:24:53.809Z,53.21
2023-08-17T00:27:21.451Z,53.36
2023-08-17T00:29:49.119Z,53.36
2023-08-17T00:32:18.115Z,53.59
2023-08-17T00:34:46.389Z,53.95
2023-08-17T00:37:13.987Z,53.89
2023-08-17T00:39:42.965Z,53.63
2023-08-17T00:42:11.013Z,53.73
2023-08-17T00:44:38.642Z,53.27
2023-08-17T00:47:06.736Z,52.96
2023-08-17T00:49:35.233Z,53.31
2023-08-17T00:52:04.207Z,53.63
2023-08-17T00:54:32.168Z,54.01
2023-08-17T00:57:01.730Z,54.27
2023-08-17T00:59:36.387Z,54.25
2023-08-17T01:02:04.802Z,54.27
2023-08-17T01:04:33.911Z,54.20
2023-08-17T01:07:01.497Z,53.65
2023-08-17T01:09:29.150Z,53.08
2023-08-17T01:12:07.808Z,52.74
2023-08-17T01:14:45.534Z,53.23
2023-08-17T01:17:19.855Z,53.64
2023-08-17T01:19:48.729Z,53.80
2023-08-17T01:22:19.115Z,53.22
2023-08-17T01:24:48.039Z,53.30
2023-08-17T01:27:15.709Z,53.45
2023-08-17T01:29:43.616Z,53.75
2023-08-17T01:32:18.397Z,53.59
2023-08-17T01:34:54.979Z,53.40
2023-08-17T01:37:25.395Z,53.28
2023-08-17T01:39:57.836Z,52.86
2023-08-17T01:42:26.551Z,53.22
2023-08-17T01:44:54.563Z,53.19
2023-08-17T01:47:25.088Z,53.65
2023-08-17T01:49:52.808Z,53.56
2023-08-17T01:52:20.441Z,53.04
2023-08-17T01:54:48.194Z,52.89
2023-08-17T01:57:17.107Z,53.13
2023-08-17T01:59:44.666Z,53.33
2023-08-17T02:02:12.630Z,53.46
2023-08-17T02:04:40.267Z,53.76
2023-08-17T02:07:07.881Z,53.90
2023-08-17T02:09:35.521Z,53.98
2023-08-17T02:12:03.138Z,54.23
2023-08-17T02:14:32.131Z,54.48
2023-08-17T02:16:59.732Z,54.68
2023-08-17T02:19:27.326Z,54.67
2023-08-17T02:21:54.953Z,54.36
2023-08-17T02:24:22.631Z,54.08
2023-08-17T02:26:50.241Z,54.25
2023-08-17T02:29:17.898Z,54.61
2023-08-17T02:31:47.186Z,54.86
2023-08-17T02:34:14.789Z,54.37
2023-08-17T02:36:42.359Z,54.33
2023-08-17T02:39:10.061Z,54.65
2023-08-17T02:41:37.699Z,54.53
2023-08-17T02:44:05.792Z,54.61
2023-08-17T02:46:33.451Z,54.84
2023-08-17T02:49:02.401Z,54.83
2023-08-17T02:51:30.020Z,54.33
2023-08-17T02:53:57.702Z,54.04
2023-08-17T02:56:25.310Z,54.28
2023-08-17T02:58:52.939Z,54.55
2023-08-17T03:01:20.563Z,54.72
2023-08-17T03:03:48.570Z,55.15
2023-08-17T03:06:17.588Z,55.42
2023-08-17T03:08:45.285Z,55.40
2023-08-17T03:11:13.020Z,55.44
2023-08-17T03:13:40.670Z,55.36
2023-08-17T03:16:08.291Z,55.51
2023-08-17T03:18:35.869Z,55.67
2023-08-17T03:21:03.439Z,55.84
2023-08-17T03:23:32.492Z,55.81
2023-08-17T03:26:00.191Z,56.02
2023-08-17T03:28:29.418Z,56.03
2023-08-17T03:30:57.480Z,56.29
2023-08-17T03:33:25.179Z,56.08
2023-08-17T03:35:52.846Z,55.79
2023-08-17T03:38:20.467Z,55.73
2023-08-17T03:40:49.680Z,55.81
2023-08-17T03:43:17.316Z,56.12
2023-08-17T03:45:45.304Z,56.36
2023-08-17T03:48:13.463Z,56.42
2023-08-17T03:50:41.222Z,56.58
2023-08-17T03:53:08.838Z,56.56
2023-08-17T03:55:36.432Z,56.68
2023-08-17T03:58:05.599Z,56.71
2023-08-17T04:00:33.464Z,56.47
2023-08-17T04:03:01.121Z,56.26
2023-08-17T04:05:29.511Z,56.55
2023-08-17T04:07:57.122Z,56.76
2023-08-17T04:10:24.992Z,56.15
2023-08-17T04:12:53.214Z,56.65
2023-08-17T04:15:22.134Z,56.87
2023-08-17T04:17:49.785Z,56.53
2023-08-17T04:20:19.182Z,56.50
2023-08-17T04:22:46.755Z,56.58
2023-08-17T04:25:14.904Z,56.77
2023-08-17T04:27:42.512Z,55.62
2023-08-17T04:30:11.868Z,55.64
2023-08-17T04:32:40.972Z,55.23
2023-08-17T04:35:09.303Z,55.67
2023-08-17T04:37:36.896Z,56.39
2023-08-17T04:40:06.342Z,57.37
2023-08-17T04:42:33.917Z,56.21
2023-08-17T04:45:01.494Z,55.79
2023-08-17T04:47:30.085Z,55.57
2023-08-17T04:49:59.080Z,55.60
2023-08-17T04:52:26.856Z,56.15
2023-08-17T04:54:54.420Z,56.71
2023-08-17T04:57:22.067Z,56.46
2023-08-17T04:59:49.701Z,55.61
2023-08-17T05:02:17.322Z,55.54
2023-08-17T05:04:45.020Z,55.33
2023-08-17T05:07:13.985Z,55.31
2023-08-17T05:09:41.565Z,54.70
2023-08-17T05:12:10.029Z,55.05
2023-08-17T05:14:37.693Z,55.11
2023-08-17T05:17:05.480Z,55.39
2023-08-17T05:19:33.202Z,55.38
2023-08-17T05:22:00.902Z,55.20
2023-08-17T05:24:29.887Z,55.14
2023-08-17T05:26:57.667Z,54.13
2023-08-17T05:29:25.247Z,54.16
2023-08-17T05:31:52.900Z,53.75
2023-08-17T05:34:20.489Z,53.38
2023-08-17T05:36:48.096Z,54.76
2023-08-17T05:39:15.659Z,54.80
2023-08-17T05:41:44.641Z,54.79
2023-08-17T05:44:12.335Z,55.99
2023-08-17T05:46:40.072Z,56.35
2023-08-17T05:49:07.802Z,56.83
2023-08-17T05:51:35.490Z,56.42
2023-08-17T05:54:03.139Z,55.79
2023-08-17T05:56:30.890Z,54.99
2023-08-17T05:58:59.811Z,55.45
2023-08-17T06:01:27.414Z,54.94
2023-08-17T06:03:55.000Z,54.97
2023-08-17T06:06:22.725Z,55.05
2023-08-17T06:08:50.313Z,54.95
2023-08-17T06:11:17.970Z,55.69
2023-08-17T06:13:45.621Z,55.05
2023-08-17T06:16:14.700Z,55.51
2023-08-17T06:18:42.712Z,54.46
2023-08-17T06:21:10.432Z,54.37
2023-08-17T06:23:38.050Z,54.78
2023-08-17T06:26:05.677Z,54.23
2023-08-17T06:28:33.330Z,53.85
2023-08-17T06:31:01.253Z,54.51
2023-08-17T06:33:30.276Z,54.79
2023-08-17T06:35:58.081Z,56.40
2023-08-17T06:38:25.642Z,55.82
2023-08-17T06:40:53.682Z,54.54
2023-08-17T06:43:21.284Z,53.69
2023-08-17T06:45:48.969Z,52.90
2023-08-17T06:48:16.663Z,52.34
2023-08-17T06:50:45.621Z,52.51
2023-08-17T06:53:13.437Z,52.89
2023-08-17T06:55:41.104Z,52.26
2023-08-17T06:58:08.723Z,52.12
2023-08-17T07:00:36.649Z,51.90
2023-08-17T07:03:05.267Z,52.20
2023-08-17T07:05:32.963Z,51.70
2023-08-17T07:08:02.729Z,52.02
2023-08-17T07:10:30.364Z,51.42
2023-08-17T07:12:58.070Z,51.82
2023-08-17T07:15:25.702Z,51.45
2023-08-17T07:17:53.719Z,51.11
2023-08-17T07:20:21.406Z,50.58
2023-08-17T07:22:49.074Z,50.35
2023-08-17T07:25:18.165Z,49.81
2023-08-17T07:27:45.855Z,49.38
2023-08-17T07:30:14.416Z,49.15
2023-08-17T07:32:42.165Z,49.04
2023-08-17T07:35:10.567Z,50.86
2023-08-17T07:37:38.234Z,49.55
2023-08-17T07:40:06.951Z,48.47
2023-08-17T07:42:36.092Z,47.87
2023-08-17T07:45:05.645Z,49.25
2023-08-17T07:47:33.301Z,48.88
2023-08-17T07:50:00.991Z,47.78
2023-08-17T07:52:28.548Z,47.38
2023-08-17T07:54:56.249Z,47.12
2023-08-17T07:57:24.419Z,47.38
2023-08-17T07:59:54.796Z,46.99
2023-08-17T08:02:22.426Z,46.17
2023-08-17T08:04:50.087Z,46.23
2023-08-17T08:07:17.787Z,45.79
2023-08-17T08:09:45.398Z,45.48
2023-08-17T08:12:13.031Z,45.01
2023-08-17T08:14:40.616Z,44.83
2023-08-17T08:17:09.598Z,44.83
2023-08-17T08:19:37.273Z,45.10
2023-08-17T08:22:04.899Z,45.09
2023-08-17T08:24:38.330Z,45.31
2023-08-17T08:27:06.607Z,44.67
2023-08-17T08:29:34.685Z,44.90
2023-08-17T08:32:03.922Z,44.99
2023-08-17T08:34:33.037Z,46.11
2023-08-17T08:37:00.691Z,46.34
2023-08-17T08:39:28.620Z,45.75
2023-08-17T08:41:56.692Z,44.65
2023-08-17T08:44:24.419Z,44.09
2023-08-17T08:46:54.714Z,43.96
2023-08-17T08:49:25.441Z,43.93
2023-08-17T08:51:54.535Z,44.20
2023-08-17T08:54:24.200Z,43.98
2023-08-17T08:56:56.763Z,43.13
2023-08-17T08:59:27.999Z,43.03
2023-08-17T09:01:57.478Z,43.75
2023-08-17T09:04:25.628Z,43.78
2023-08-17T09:06:56.014Z,44.00
2023-08-17T09:09:29.429Z,44.20
2023-08-17T09:11:57.632Z,43.65
2023-08-17T09:14:25.386Z,44.93
2023-08-17T09:16:53.151Z,44.37
2023-08-17T09:19:21.110Z,43.41
2023-08-17T09:21:51.510Z,43.73
2023-08-17T09:24:20.669Z,43.80
2023-08-17T09:26:48.362Z,43.76
2023-08-17T09:29:20.218Z,44.38
2023-08-17T09:31:48.168Z,44.61
2023-08-17T09:34:17.746Z,45.28
2023-08-17T09:36:48.218Z,45.05
2023-08-17T09:39:17.680Z,44.88
2023-08-17T09:41:46.806Z,44.05
2023-08-17T09:44:14.676Z,43.57
2023-08-17T09:46:45.941Z,42.99
2023-08-17T09:49:13.583Z,44.14
2023-08-17T09:51:44.523Z,43.55
2023-08-17T09:54:22.061Z,43.81
2023-08-17T09:56:51.788Z,44.12
2023-08-17T09:59:19.491Z,43.92
2023-08-17T10:01:56.806Z,43.43
2023-08-17T10:04:26.093Z,42.84
2023-08-17T10:07:00.250Z,43.05
2023-08-17T10:09:33.353Z,42.70
2023-08-17T10:12:06.020Z,41.76
2023-08-17T10:14:38.752Z,42.08
2023-08-17T10:17:11.381Z,41.91
2023-08-17T10:19:46.092Z,41.96
2023-08-17T10:22:19.789Z,42.80
2023-08-17T10:24:48.452Z,42.56
2023-08-17T10:27:18.945Z,42.40
2023-08-17T10:29:47.159Z,41.86
2023-08-17T10:32:16.953Z,42.42
2023-08-17T10:34:45.817Z,42.15
2023-08-17T10:37:14.634Z,41.78
2023-08-17T10:39:47.230Z,41.15
2023-08-17T10:42:20.790Z,41.38
2023-08-17T10:44:50.543Z,41.24
2023-08-17T10:47:22.513Z,41.83
2023-08-17T10:49:51.053Z,41.61
2023-08-17T10:52:28.326Z,40.88
2023-08-17T10:54:57.027Z,40.64
2023-08-17T10:57:33.129Z,37.15
2023-08-17T11:00:22.060Z,37.11
2023-08-17T11:02:56.651Z,37.51
2023-08-17T11:05:42.145Z,37.40
2023-08-17T11:08:11.897Z,37.07
2023-08-17T11:10:40.166Z,37.59
2023-08-17T11:13:08.360Z,37.81
2023-08-17T11:15:44.841Z,37.02
2023-08-17T11:18:13.730Z,36.90
2023-08-17T11:20:43.560Z,36.53
2023-08-17T11:23:12.492Z,36.18
2023-08-17T11:25:40.553Z,35.26
2023-08-17T11:28:09.490Z,35.27
2023-08-17T11:30:39.940Z,34.95
2023-08-17T11:33:09.730Z,33.96
2023-08-17T11:35:37.902Z,33.13
2023-08-17T11:38:08.954Z,35.05
2023-08-17T11:40:37.543Z,35.16
2023-08-17T11:43:06.073Z,35.01
2023-08-17T11:45:34.141Z,35.09
2023-08-17T11:48:02.510Z,35.07
2023-08-17T11:50:31.742Z,35.34
2023-08-17T11:53:01.554Z,33.41
2023-08-17T11:55:29.975Z,35.60
2023-08-17T11:57:57.760Z,35.26
2023-08-17T12:00:26.676Z,36.02
2023-08-17T12:02:55.228Z,34.34
2023-08-17T12:05:24.369Z,34.40
2023-08-17T12:07:55.296Z,34.93
2023-08-17T12:10:24.395Z,35.25
2023-08-17T12:12:52.204Z,35.27
2023-08-17T12:15:20.063Z,34.92
2023-08-17T12:17:48.544Z,35.17
2023-08-17T12:20:19.984Z,34.48
2023-08-17T12:22:47.758Z,34.15
2023-08-17T12:25:17.238Z,34.08
2023-08-17T12:27:44.980Z,34.25
2023-08-17T12:30:14.591Z,33.32
2023-08-17T12:32:42.267Z,33.48
2023-08-17T12:35:10.240Z,33.45
2023-08-17T12:37:37.847Z,33.73
2023-08-17T12:40:06.260Z,34.00
2023-08-17T12:42:35.289Z,35.42
2023-08-17T12:45:05.597Z,34.25
2023-08-17T12:47:35.351Z,34.88
2023-08-17T12:50:04.726Z,34.93
2023-08-17T12:52:32.464Z,34.23
2023-08-17T12:55:00.207Z,33.58
2023-08-17T12:57:27.863Z,33.55
2023-08-17T12:59:56.890Z,34.22
2023-08-17T13:02:25.935Z,34.27
2023-08-17T13:04:53.873Z,33.65
2023-08-17T13:07:21.482Z,33.53
2023-08-17T13:09:49.102Z,33.77
2023-08-17T13:12:16.972Z,33.93
2023-08-17T13:14:44.773Z,34.24
2023-08-17T13:17:15.565Z,34.30
2023-08-17T13:19:43.337Z,35.11
2023-08-17T13:22:11.412Z,35.55
2023-08-17T13:24:41.056Z,35.27
2023-08-17T13:27:08.857Z,35.59
2023-08-17T13:29:39.392Z,35.94
2023-08-17T13:32:07.232Z,36.28
2023-08-17T13:34:36.397Z,35.69
2023-08-17T13:37:04.470Z,36.20
2023-08-17T13:39:32.160Z,36.59
2023-08-17T13:41:59.815Z,36.80
2023-08-17T13:44:27.376Z,35.63
2023-08-17T13:46:54.956Z,35.33
2023-08-17T13:49:22.536Z,35.76
2023-08-17T13:51:51.425Z,35.60
2023-08-17T13:54:19.912Z,35.60
2023-08-17T13:56:47.509Z,35.55
2023-08-17T13:59:15.277Z,35.39
2023-08-17T14:01:42.899Z,34.99
2023-08-17T14:04:12.530Z,34.51
2023-08-17T14:06:40.893Z,34.14
2023-08-17T14:09:09.789Z,33.82
2023-08-17T14:11:37.432Z,33.24
2023-08-17T14:14:05.177Z,32.99
2023-08-17T14:16:33.123Z,33.33
2023-08-17T14:19:00.837Z,32.70
2023-08-17T14:21:28.377Z,32.97
2023-08-17T14:23:55.968Z,32.44
2023-08-17T14:26:24.848Z,34.97
2023-08-17T14:28:52.390Z,35.81
2023-08-17T14:31:20.564Z,36.57
2023-08-17T14:33:48.982Z,38.08
2023-08-17T14:38:47.314Z,38.97
2023-08-17T14:41:14.913Z,39.41
2023-08-17T14:43:43.831Z,39.79
2023-08-17T14:48:42.208Z,39.85
2023-08-17T14:51:09.958Z,39.29
2023-08-17T14:53:40.166Z,38.38
2023-08-17T14:56:08.012Z,40.70
2023-08-17T14:58:35.599Z,40.41
2023-08-17T15:01:05.212Z,39.59
2023-08-17T15:03:32.966Z,39.48
2023-08-17T15:06:00.831Z,39.49
2023-08-17T15:08:28.455Z,39.21
2023-08-17T15:10:56.063Z,39.98
2023-08-17T15:13:23.800Z,39.70
2023-08-17T15:15:51.711Z,39.47
2023-08-17T15:18:22.854Z,39.66
2023-08-17T15:20:51.300Z,40.17
2023-08-17T15:23:19.258Z,40.59
2023-08-17T15:25:46.891Z,40.68
2023-08-17T15:28:14.474Z,40.69
2023-08-17T15:30:42.010Z,40.74
2023-08-17T15:33:10.769Z,39.19
2023-08-17T15:35:39.777Z,41.62
2023-08-17T15:38:07.364Z,41.48
2023-08-17T15:40:34.975Z,40.96
2023-08-17T15:43:02.539Z,40.77
2023-08-17T15:45:30.122Z,40.22
2023-08-17T15:47:57.717Z,39.91
2023-08-17T15:50:25.368Z,41.14
2023-08-17T15:52:54.275Z,40.88
2023-08-17T15:55:21.859Z,40.90
2023-08-17T15:57:50.964Z,40.68
2023-08-17T16:00:19.387Z,41.12
2023-08-17T16:02:47.433Z,40.36
2023-08-17T16:05:15.151Z,40.40
2023-08-17T16:07:42.702Z,40.30
2023-08-17T16:10:12.054Z,40.92
2023-08-17T16:12:42.990Z,41.57
2023-08-17T16:15:11.994Z,41.99
2023-08-17T16:17:39.713Z,41.74
2023-08-17T16:20:08.990Z,41.03
2023-08-17T16:22:36.917Z,40.38
2023-08-17T16:25:05.103Z,39.91
2023-08-17T16:27:38.853Z,39.51
2023-08-17T16:30:08.287Z,39.00
2023-08-17T16:32:36.032Z,38.86
2023-08-17T16:35:04.062Z,39.22
2023-08-17T16:37:31.828Z,38.78
2023-08-17T16:39:59.373Z,38.44
2023-08-17T16:42:27.034Z,38.83
2023-08-17T16:44:56.046Z,38.46
2023-08-17T16:47:27.546Z,38.40
2023-08-17T16:49:56.233Z,38.90
2023-08-17T16:52:24.993Z,38.39
2023-08-17T16:54:52.626Z,37.44
2023-08-17T16:57:20.317Z,37.60
2023-08-17T16:59:47.859Z,36.92
2023-08-17T17:02:16.808Z,36.97
2023-08-17T17:04:44.983Z,36.61
2023-08-17T17:07:12.580Z,36.80
2023-08-17T17:09:40.111Z,37.43
2023-08-17T17:12:08.508Z,37.28
2023-08-17T17:14:36.237Z,37.09
2023-08-17T17:17:04.174Z,36.63
2023-08-17T17:19:33.292Z,36.63
2023-08-17T17:22:00.859Z,36.70
2023-08-17T17:24:28.417Z,37.06
2023-08-17T17:26:55.975Z,37.12
2023-08-17T17:29:23.545Z,37.64
2023-08-17T17:31:51.935Z,38.08
2023-08-17T17:34:20.728Z,37.79
2023-08-17T17:36:50.300Z,37.94
2023-08-17T17:39:17.979Z,38.28
2023-08-17T17:41:45.547Z,39.06
2023-08-17T17:44:13.145Z,39.06
2023-08-17T17:46:40.743Z,38.55
2023-08-17T17:49:08.396Z,38.78
2023-08-17T17:51:35.962Z,39.10
2023-08-17T17:54:05.339Z,39.47
2023-08-17T17:56:40.410Z,40.90
2023-08-17T17:59:10.994Z,40.42
2023-08-17T18:01:38.980Z,40.78
2023-08-17T18:04:06.938Z,40.89
2023-08-17T18:06:35.215Z,42.16
2023-08-17T18:09:03.340Z,42.73
2023-08-17T18:11:32.485Z,43.25
2023-08-17T18:14:00.046Z,42.95
2023-08-17T18:16:27.718Z,44.53
2023-08-17T18:18:55.369Z,46.46
2023-08-17T18:21:22.910Z,46.08
2023-08-17T18:23:51.345Z,47.72
2023-08-17T18:26:18.905Z,47.63
2023-08-17T18:28:47.852Z,47.50
2023-08-17T18:31:15.467Z,45.16
2023-08-17T18:33:43.203Z,44.95
2023-08-17T18:36:10.769Z,44.63
2023-08-17T18:38:38.346Z,46.54
2023-08-17T18:41:09.859Z,49.32
2023-08-17T18:43:37.821Z,47.66
2023-08-17T18:46:07.540Z,47.16
2023-08-17T18:48:35.310Z,48.11
2023-08-17T18:51:02.984Z,47.62
2023-08-17T18:53:30.568Z,48.52
2023-08-17T18:55:58.211Z,48.79
2023-08-17T18:58:26.560Z,49.84
2023-08-17T19:00:54.275Z,50.94
2023-08-17T19:03:23.399Z,51.37
2023-08-17T19:05:51.135Z,51.70
2023-08-17T19:08:18.680Z,52.50
2023-08-17T19:10:46.258Z,52.87
2023-08-17T19:13:13.806Z,52.90
2023-08-17T19:15:41.850Z,53.54
2023-08-17T19:18:10.497Z,53.40
2023-08-17T19:20:39.748Z,53.40
2023-08-17T19:23:07.720Z,53.02
2023-08-17T19:25:35.351Z,51.79
2023-08-17T19:28:03.014Z,51.25
2023-08-17T19:30:30.623Z,50.92
2023-08-17T19:32:59.451Z,50.60
2023-08-17T19:35:27.682Z,51.12
2023-08-17T19:37:57.129Z,50.85
2023-08-17T19:40:25.000Z,50.64
2023-08-17T19:42:52.677Z,50.72
2023-08-17T19:45:20.337Z,51.13
2023-08-17T19:47:48.223Z,51.87
2023-08-17T19:50:16.310Z,51.76
2023-08-17T19:52:44.017Z,51.97
2023-08-17T19:55:14.475Z,52.04
2023-08-17T19:57:42.409Z,52.06
2023-08-17T20:00:12.343Z,52.28
2023-08-17T20:02:40.061Z,52.50
2023-08-17T20:05:09.682Z,52.60
2023-08-17T20:07:37.711Z,52.99
2023-08-17T20:10:06.573Z,52.99
2023-08-17T20:12:35.537Z,52.40
2023-08-17T20:15:03.831Z,52.49
2023-08-17T20:17:31.639Z,51.80
2023-08-17T20:19:59.594Z,51.12
2023-08-17T20:22:27.194Z,51.31
2023-08-17T20:24:54.879Z,51.23
2023-08-17T20:27:22.722Z,51.16
2023-08-17T20:29:51.643Z,52.02
2023-08-17T20:32:19.520Z,52.89
2023-08-17T20:34:47.151Z,53.04
2023-08-17T20:37:14.711Z,53.04
2023-08-17T20:39:42.364Z,53.00
2023-08-17T20:42:10.882Z,53.15
2023-08-17T20:44:38.591Z,53.27
2023-08-17T20:47:09.748Z,53.17
2023-08-17T20:49:38.306Z,53.09
2023-08-17T20:52:06.047Z,53.01
2023-08-17T20:54:33.795Z,53.03
2023-08-17T20:57:01.358Z,52.96
2023-08-17T20:59:28.914Z,53.28
2023-08-17T21:01:56.468Z,52.98
2023-08-17T21:04:25.811Z,53.21
2023-08-17T21:06:53.374Z,53.47
2023-08-17T21:09:21.956Z,53.19
2023-08-17T21:11:49.596Z,53.23
2023-08-17T21:14:17.142Z,53.39
2023-08-17T21:16:44.689Z,53.88
2023-08-17T21:19:12.363Z,53.93
2023-08-17T21:21:41.271Z,53.93
2023-08-17T21:24:08.892Z,54.04
2023-08-17T21:26:36.572Z,54.15
2023-08-17T21:29:04.428Z,54.60
2023-08-17T21:31:32.596Z,54.71
2023-08-17T21:34:00.513Z,54.93
2023-08-17T21:36:28.101Z,55.05
2023-08-17T21:38:58.383Z,55.28
2023-08-17T21:41:26.041Z,54.96
2023-08-17T21:43:54.197Z,55.16
2023-08-17T21:46:21.927Z,54.86
2023-08-17T21:48:49.629Z,55.07
2023-08-17T21:51:17.200Z,55.32
2023-08-17T21:53:44.787Z,55.66
2023-08-17T21:56:14.799Z,55.81
2023-08-17T21:58:42.437Z,55.92
2023-08-17T22:01:10.215Z,55.94
2023-08-17T22:03:37.928Z,55.98
2023-08-17T22:06:06.966Z,55.66
2023-08-17T22:08:34.728Z,55.50
2023-08-17T22:11:02.335Z,55.58
2023-08-17T22:13:31.290Z,55.71
2023-08-17T22:15:58.936Z,55.79
2023-08-17T22:18:26.773Z,55.36
2023-08-17T22:20:54.365Z,55.48
2023-08-17T22:23:22.213Z,55.71
2023-08-17T22:25:49.798Z,56.09
2023-08-17T22:28:17.384Z,55.98
2023-08-17T22:30:46.339Z,55.70
2023-08-17T22:33:13.967Z,55.61
2023-08-17T22:35:41.549Z,55.71
2023-08-17T22:38:09.131Z,55.86
2023-08-17T22:40:36.759Z,55.95
2023-08-17T22:43:04.460Z,56.33
2023-08-17T22:45:32.076Z,56.56
2023-08-17T22:48:01.062Z,56.79
2023-08-17T22:50:28.687Z,56.94
2023-08-17T22:52:56.316Z,56.59
2023-08-17T22:55:24.297Z,56.48
2023-08-17T22:57:51.969Z,56.60
2023-08-17T23:00:20.419Z,56.83
2023-08-17T23:02:48.282Z,57.30
2023-08-17T23:05:17.740Z,57.52
2023-08-17T23:07:45.341Z,57.52
2023-08-17T23:10:12.978Z,57.59
2023-08-17T23:12:40.536Z,57.64
2023-08-17T23:15:08.691Z,57.74
2023-08-17T23:17:36.446Z,57.69
2023-08-17T23:20:04.652Z,57.78
2023-08-17T23:22:33.630Z,57.35
2023-08-17T23:25:01.224Z,57.05
2023-08-17T23:27:29.035Z,57.57
2023-08-17T23:29:56.942Z,57.67
2023-08-17T23:32:28.309Z,57.90
2023-08-17T23:34:56.644Z,58.15
2023-08-17T23:37:24.417Z,58.11
2023-08-17T23:39:53.414Z,58.28
2023-08-17T23:42:21.371Z,58.14
2023-08-17T23:44:48.944Z,58.30
2023-08-17T23:47:16.536Z,58.18
2023-08-17T23:49:45.496Z,57.77
2023-08-17T23:52:13.176Z,57.49
2023-08-17T23:54:40.750Z,57.33
2023-08-17T23:57:09.677Z,57.82
2023-08-17T23:59:37.239Z,58.10
